Middletown, IA (52638)

6:02 PM CDT on August 27, 2014 (GMT -0500)
Spirit Hollow GC | Change Station
CLOSE
Current Station
Personal Weather Station
Location: Burlington, IA
Elevation: 650 ft
Nearby Weather Stations

Elev 650 ft 40.76 °N, 91.14 °W | Updated 6 seconds ago

Partly Cloudy
Partly Cloudy
79.0 °F
Feels Like 79 °F
N
2.9
Wind Variable Wind from NE
Gusts 4.9 mph

Today
High -- | Low -- °F
--% Chance of Precip.
Yesterday
High -- | Low -- °F
Precip. -- in
6:27 AM 7:45 PM
Waxing Crescent, 5% visible
Pressure 30.06 in
Visibility 10.0 miles
Clouds Clear
Heat Index 79 °F
Dew Point 46 °F
Humidity 31%
Rainfall 0.02 in
Snow Depth Not available.
UV 2 out of 12
Pollen 8.70 out of 12
Air Quality Not available.
Flu Activity Not available.
METAR KBRL 272253Z AUTO 07003KT 10SM -RA CLR 26/21 A3007 RMK AO2 RAB2158 SLP179 P0000 T02610206

More Conditions Fewer Conditions

Pressure 30.06 in
Visibility 10.0 miles
Clouds Clear
Heat Index 79 °F
Dew Point 46 °F
Humidity 31%
Rainfall 0.02 in
Snow Depth Not available.
UV 2 out of 12
Pollen 8.70 out of 12
Air Quality Not available.
Flu Activity Not available.
METAR KBRL 272253Z AUTO 07003KT 10SM -RA CLR 26/21 A3007 RMK AO2 RAB2158 SLP179 P0000 T02610206

More Conditions Fewer Conditions

10-Day Weather Forecast

Almanac

Astronomy

Aug. 27, 2014 Rise Set
Actual Time 6:27 AM CDT 7:45 PM CDT
Civil Twilight 5:58 AM CDT 8:13 PM CDT
Nautical Twilight 5:24 AM CDT 8:47 PM CDT
Astronomical Twilight 4:48 AM CDT 9:23 PM CDT
Moon 8:24 AM CDT 8:36 PM CDT
Length of Visible Light 14h 15m
Length of Day
13h 18m
Tomorrow will be 2m 35s shorter.
Waxing Crescent, 5% of the Moon is Illuminated
Today
Waxing Crescent
Sep 2
First Quarter
Sep 8
Full
Sep 15
Last Quarter
Sep 24
New

Today's Extremes

State Highs State Lows

Community

WunderPhotos

Upload Photos

1,747,814 photos uploaded!

Nearby

Snow Depth

Station Depth Elevation
No new snow has been reported.

Earthquake Activity

City Distance Mag. Time & Date
No recent earthquake activity has been reported nearby.
Minimum magnitude displayed is 2.5.

Coastal Water Temperatures

Place Temperature
No Stations Reporting

Nearby Weather Stations